Time,TemperatureF,DewpointF,PressureIn,WindDirection,WindDirectionDegrees,WindSpeedMPH,WindSpeedGustMPH,Humidity,HourlyPrecipIn,Conditions,Clouds,dailyrainin,SoftwareType,DateUTC
2013-04-19 00:00:00,72.7,59.8,29.81,SSW,193,6.0,15.0,64,0.00,SCT,,0.00,WeatherDisplay:10.37,2013-04-19 04:00:00,
2013-04-19 00:10:00,72.9,60.0,29.81,South,182,8.0,13.0,64,0.00,SCT,,0.00,WeatherDisplay:10.37,2013-04-19 04:10:00,
2013-04-19 00:20:00,73.1,60.2,29.80,SSW,211,6.0,17.0,64,0.00,SCT,,0.00,WeatherDisplay:10.37,2013-04-19 04:20:00,
2013-04-19 00:30:00,73.2,60.3,29.79,South,188,6.0,20.0,64,0.00,SCT,,0.00,WeatherDisplay:10.37,2013-04-19 04:30:00,
2013-04-19 00:40:00,73.1,60.2,29.79,SSW,198,7.0,15.0,64,0.00,SCT,,0.00,WeatherDisplay:10.37,2013-04-19 04:40:00,
2013-04-19 00:50:00,73.0,60.5,29.78,SSW,207,8.0,17.0,65,0.00,CLR,,0.00,WeatherDisplay:10.37,2013-04-19 04:50:00,
2013-04-19 01:00:00,72.9,60.4,29.77,South,183,7.0,20.0,65,0.00,CLR,,0.00,WeatherDisplay:10.37,2013-04-19 05:00:00,
2013-04-19 01:10:00,72.9,60.9,29.77,SSW,209,3.0,24.0,66,0.00,CLR,,0.00,WeatherDisplay:10.37,2013-04-19 05:10:00,
2013-04-19 01:20:00,72.9,61.3,29.77,SSW,198,6.0,17.0,67,0.00,CLR,,0.00,WeatherDisplay:10.37,2013-04-19 05:20:00,
2013-04-19 01:30:00,72.8,61.6,29.76,SSW,205,9.0,17.0,68,0.00,CLR,,0.00,WeatherDisplay:10.37,2013-04-19 05:30:00,
2013-04-19 01:40:00,72.8,61.6,29.76,South,180,9.0,21.0,68,0.00,CLR,,0.00,WeatherDisplay:10.37,2013-04-19 05:40:00,
2013-04-19 01:50:00,72.9,62.2,29.76,SSW,199,9.0,25.0,69,0.00,CLR,,0.00,WeatherDisplay:10.37,2013-04-19 05:50:00,
2013-04-19 02:00:00,72.8,62.0,29.75,SSW,195,13.0,22.0,69,0.00,CLR,,0.00,WeatherDisplay:10.37,2013-04-19 06:00:00,
2013-04-19 02:10:00,72.8,62.4,29.74,SSW,200,6.0,21.0,70,0.00,SCT,,0.00,WeatherDisplay:10.37,2013-04-19 06:10:00,
2013-04-19 02:20:00,72.8,62.4,29.74,SSW,204,9.0,22.0,70,0.00,SCT,,0.00,WeatherDisplay:10.37,2013-04-19 06:20:00,
2013-04-19 02:30:00,72.7,62.3,29.73,SSW,192,6.0,23.0,70,0.00,SCT,,0.00,WeatherDisplay:10.37,2013-04-19 06:30:00,
2013-04-19 02:40:00,72.6,62.7,29.73,South,189,8.0,20.0,71,0.00,SCT,,0.00,WeatherDisplay:10.37,2013-04-19 06:40:00,
2013-04-19 02:50:00,72.4,62.5,29.72,SSW,211,8.0,20.0,71,0.00,CLR,,0.00,WeatherDisplay:10.37,2013-04-19 06:50:00,
2013-04-19 03:00:00,72.4,62.9,29.72,SSW,192,8.0,28.0,72,0.00,CLR,,0.00,WeatherDisplay:10.37,2013-04-19 07:00:00,
2013-04-19 03:10:00,72.3,62.8,29.72,SSW,213,7.0,18.0,72,0.00,CLR,,0.00,WeatherDisplay:10.37,2013-04-19 07:10:00,
2013-04-19 03:20:00,72.4,63.3,29.73,SW,217,10.0,24.0,73,0.00,CLR,,0.00,WeatherDisplay:10.37,2013-04-19 07:20:00,
2013-04-19 03:30:00,72.3,63.2,29.72,SSW,208,10.0,25.0,73,0.00,CLR,,0.00,WeatherDisplay:10.37,2013-04-19 07:30:00,
2013-04-19 03:40:00,72.2,63.4,29.71,SSW,203,7.0,28.0,74,0.00,BKN,,0.00,WeatherDisplay:10.37,2013-04-19 07:40:00,
2013-04-19 03:50:00,72.1,63.4,29.73,SSW,196,8.0,25.0,74,0.00,OVC,,0.00,WeatherDisplay:10.37,2013-04-19 07:50:00,
2013-04-19 04:00:00,71.9,63.6,29.72,SSW,211,6.0,20.0,75,0.00,OVC,,0.00,WeatherDisplay:10.37,2013-04-19 08:00:00,
2013-04-19 04:10:00,71.8,63.4,29.71,SSW,195,6.0,18.0,75,0.00,OVC,,0.00,WeatherDisplay:10.37,2013-04-19 08:10:00,
2013-04-19 04:20:00,71.6,63.6,29.70,SSW,206,9.0,16.0,76,0.00,OVC,,0.00,WeatherDisplay:10.37,2013-04-19 08:20:00,
2013-04-19 04:30:00,71.5,63.6,29.70,SSW,209,7.0,22.0,76,0.00,OVC,,0.00,WeatherDisplay:10.37,2013-04-19 08:30:00,
2013-04-19 04:40:00,71.5,63.5,29.69,SSW,208,6.0,18.0,76,0.00,OVC,,0.00,WeatherDisplay:10.37,2013-04-19 08:40:00,
2013-04-19 04:50:00,71.4,63.8,29.70,SSW,209,9.0,22.0,77,0.00,OVC,,0.00,WeatherDisplay:10.37,2013-04-19 08:50:00,
2013-04-19 05:00:00,71.3,63.7,29.69,SSW,202,6.0,17.0,77,0.00,OVC,,0.00,WeatherDisplay:10.37,2013-04-19 09:00:00,
2013-04-19 05:10:00,71.3,63.7,29.69,SSW,208,9.0,20.0,77,0.00,OVC,,0.00,WeatherDisplay:10.37,2013-04-19 09:10:00,
2013-04-19 05:20:00,71.3,63.7,29.69,SSW,207,8.0,22.0,77,0.00,OVC,,0.00,WeatherDisplay:10.37,2013-04-19 09:20:00,
2013-04-19 05:30:00,71.2,64.0,29.69,SSW,202,6.0,15.0,78,0.00,OVC,,0.00,WeatherDisplay:10.37,2013-04-19 09:30:00,
2013-04-19 05:40:00,71.2,64.0,29.68,SW,214,5.0,20.0,78,0.00,OVC,,0.00,WeatherDisplay:10.37,2013-04-19 09:40:00,
2013-04-19 05:50:00,71.2,64.0,29.68,SSW,211,6.0,16.0,78,0.00,OVC,,0.00,WeatherDisplay:10.37,2013-04-19 09:50:00,
2013-04-19 06:00:00,71.1,64.6,29.68,SSW,204,7.0,17.0,80,0.01,RA,,0.01,WeatherDisplay:10.37,2013-04-19 10:00:00,
2013-04-19 06:10:00,69.8,64.8,29.68,SW,214,7.0,17.0,84,0.02,RA,,0.03,WeatherDisplay:10.37,2013-04-19 10:10:00,
2013-04-19 06:20:00,68.8,65.1,29.69,SW,232,3.0,7.0,88,0.03,RA,,0.06,WeatherDisplay:10.37,2013-04-19 10:20:00,
2013-04-19 06:30:00,67.9,64.9,29.72,West,262,9.0,22.0,90,0.15,RA,,0.27,WeatherDisplay:10.37,2013-04-19 10:30:00,
2013-04-19 06:40:00,66.8,64.7,29.72,WSW,242,8.0,16.0,93,0.25,RA,,0.46,WeatherDisplay:10.37,2013-04-19 10:40:00,
2013-04-19 06:50:00,66.2,64.2,29.73,WSW,239,8.0,14.0,93,0.16,RA,,0.62,WeatherDisplay:10.37,2013-04-19 10:50:00,
2013-04-19 07:00:00,65.9,63.8,29.72,WSW,258,3.0,10.0,93,0.08,RA,,0.71,WeatherDisplay:10.37,2013-04-19 11:00:00,
2013-04-19 07:10:00,65.5,63.7,29.72,SW,233,3.0,9.0,94,0.09,RA,,0.79,WeatherDisplay:10.37,2013-04-19 11:10:00,
2013-04-19 07:20:00,65.2,63.4,29.73,WSW,240,7.0,10.0,94,0.04,RA,,0.83,WeatherDisplay:10.37,2013-04-19 11:20:00,
2013-04-19 07:30:00,65.1,63.6,29.73,WSW,238,1.0,7.0,95,0.03,RA,,0.86,WeatherDisplay:10.37,2013-04-19 11:30:00,
2013-04-19 07:40:00,64.7,62.9,29.72,SW,232,2.0,12.0,94,0.03, +RA,,0.89,WeatherDisplay:10.37,2013-04-19 11:40:00,
2013-04-19 07:50:00,64.2,62.5,29.74,WSW,251,7.0,12.0,94,0.01,RA,,0.90,WeatherDisplay:10.37,2013-04-19 11:50:00,
2013-04-19 08:00:00,63.9,62.1,29.76,WSW,241,6.0,12.0,94,0.02,RA,,0.92,WeatherDisplay:10.37,2013-04-19 12:00:00,
2013-04-19 08:10:00,63.4,61.6,29.77,SW,235,6.0,14.0,94,0.05,RA,,0.97,WeatherDisplay:10.37,2013-04-19 12:10:00,
2013-04-19 08:20:00,62.4,59.7,29.77,WSW,247,7.0,24.0,91,0.00,OVC,,0.97,WeatherDisplay:10.37,2013-04-19 12:20:00,
2013-04-19 08:30:00,61.7,59.3,29.76,West,265,8.0,15.0,92,0.00,OVC,,0.97,WeatherDisplay:10.37,2013-04-19 12:30:00,
2013-04-19 08:40:00,61.0,58.7,29.77,WSW,257,6.0,14.0,92,0.01,-RA,,0.98,WeatherDisplay:10.37,2013-04-19 12:40:00,
2013-04-19 08:50:00,60.4,57.7,29.77,WSW,249,3.0,9.0,91,0.00,OVC,,0.98,WeatherDisplay:10.37,2013-04-19 12:50:00,
2013-04-19 09:00:00,59.8,57.2,29.77,WSW,241,6.0,12.0,91,0.00,OVC,,0.98,WeatherDisplay:10.37,2013-04-19 13:00:00,
2013-04-19 09:10:00,59.4,56.8,29.80,WSW,246,3.0,16.0,91,0.00,-RA,,0.98,WeatherDisplay:10.37,2013-04-19 13:10:00,
2013-04-19 09:20:00,58.8,56.2,29.80,West,264,7.0,12.0,91,0.00,-RA,,0.98,WeatherDisplay:10.37,2013-04-19 13:20:00,
2013-04-19 09:30:00,58.2,55.6,29.80,WSW,247,8.0,15.0,91,0.01,-RA,,0.99,WeatherDisplay:10.37,2013-04-19 13:30:00,
2013-04-19 09:40:00,57.7,55.1,29.80,WSW,241,3.0,13.0,91,0.01,RA,,1.00,WeatherDisplay:10.37,2013-04-19 13:40:00,
2013-04-19 09:50:00,57.3,55.0,29.80,WSW,246,6.0,10.0,92,0.01,-RA,,1.01,WeatherDisplay:10.37,2013-04-19 13:50:00,
2013-04-19 10:00:00,57.0,54.7,29.81,West,259,6.0,13.0,92,0.00,-RA,,1.01,WeatherDisplay:10.37,2013-04-19 14:00:00,
2013-04-19 10:10:00,56.8,54.5,29.79,West,260,7.0,12.0,92,0.00,OVC,,1.01,WeatherDisplay:10.37,2013-04-19 14:10:00,
2013-04-19 10:20:00,56.7,54.4,29.82,West,259,1.0,12.0,92,0.01,RA,,1.02,WeatherDisplay:10.37,2013-04-19 14:20:00,
2013-04-19 10:30:00,56.4,54.1,29.81,WSW,251,5.0,12.0,92,0.02,RA,,1.04,WeatherDisplay:10.37,2013-04-19 14:30:00,
2013-04-19 10:40:00,55.8,52.9,29.82,WSW,240,6.0,12.0,90,0.01,-RA,,1.05,WeatherDisplay:10.37,2013-04-19 14:40:00,
2013-04-19 10:50:00,54.9,51.4,29.84,WSW,252,6.0,12.0,88,0.01,-RA,,1.06,WeatherDisplay:10.37,2013-04-19 14:50:00,
2013-04-19 11:00:00,53.9,50.8,29.86,WSW,249,8.0,17.0,89,0.02,-RA,,1.08,WeatherDisplay:10.37,2013-04-19 15:00:00,
2013-04-19 11:10:00,53.4,50.8,29.87,WSW,257,6.0,13.0,91,0.02,RA,,1.10,WeatherDisplay:10.37,2013-04-19 15:10:00,
2013-04-19 11:20:00,53.1,50.8,29.88,WSW,250,5.0,15.0,92,0.04,RA,,1.14,WeatherDisplay:10.37,2013-04-19 15:20:00,
2013-04-19 11:30:00,52.8,50.8,29.87,WSW,247,0.0,8.0,93,0.02,RA,,1.16,WeatherDisplay:10.37,2013-04-19 15:30:00,
2013-04-19 11:40:00,52.6,50.6,29.87,SW,220,7.0,12.0,93,0.01,-RA,,1.17,WeatherDisplay:10.37,2013-04-19 15:40:00,
2013-04-19 11:50:00,52.6,50.6,29.87,WSW,252,5.0,13.0,93,0.01,-RA,,1.18,WeatherDisplay:10.37,2013-04-19 15:50:00,
2013-04-19 12:00:00,52.6,50.6,29.88,SW,235,6.0,9.0,93,0.00,-RA,,1.18,WeatherDisplay:10.37,2013-04-19 16:00:00,
2013-04-19 12:10:00,52.3,50.0,29.90,WSW,254,7.0,10.0,92,0.00,-RA,,1.18,WeatherDisplay:10.37,2013-04-19 16:10:00,
2013-04-19 12:20:00,52.3,49.4,29.89,SW,226,6.0,16.0,90,0.00,-RA,,1.18,WeatherDisplay:10.37,2013-04-19 16:20:00,
2013-04-19 12:30:00,52.4,49.3,29.90,SW,234,8.0,15.0,89,0.00,-RA,,1.18,WeatherDisplay:10.37,2013-04-19 16:30:00,
2013-04-19 12:40:00,52.4,49.6,29.90,SW,219,7.0,14.0,90,0.00,-RA,,1.18,WeatherDisplay:10.37,2013-04-19 16:40:00,
2013-04-19 12:50:00,52.0,49.2,29.90,SW,214,6.0,13.0,90,0.00,OVC,,1.18,WeatherDisplay:10.37,2013-04-19 16:50:00,
2013-04-19 13:00:00,52.0,49.5,29.89,South,174,7.0,12.0,91,0.00,OVC,,1.18,WeatherDisplay:10.37,2013-04-19 17:00:00,
2013-04-19 13:10:00,52.0,48.6,29.88,SSE,156,3.0,8.0,88,0.00,OVC,,1.18,WeatherDisplay:10.37,2013-04-19 17:10:00,
2013-04-19 13:20:00,52.0,47.9,29.89,ESE,106,2.0,7.0,86,0.00,OVC,,1.18,WeatherDisplay:10.37,2013-04-19 17:20:00,
2013-04-19 13:30:00,52.1,48.0,29.91,South,174,9.0,16.0,86,0.00,OVC,,1.18,WeatherDisplay:10.37,2013-04-19 17:30:00,
2013-04-19 13:40:00,51.7,47.0,29.92,WSW,237,8.0,15.0,84,0.00,BKN,,1.18,WeatherDisplay:10.37,2013-04-19 17:40:00,
2013-04-19 13:50:00,51.3,46.3,29.91,SSW,209,7.0,12.0,83,0.00,BKN,,1.18,WeatherDisplay:10.37,2013-04-19 17:50:00,
2013-04-19 14:00:00,50.9,45.9,29.93,WSW,250,9.0,18.0,83,0.00,BKN,,1.18,WeatherDisplay:10.37,2013-04-19 18:00:00,
2013-04-19 14:10:00,50.5,45.5,29.94,West,265,7.0,16.0,83,0.00,OVC,,1.18,WeatherDisplay:10.37,2013-04-19 18:10:00,
2013-04-19 14:20:00,50.3,45.3,29.93,WSW,244,8.0,17.0,83,0.00,OVC,,1.18,WeatherDisplay:10.37,2013-04-19 18:20:00,
2013-04-19 14:30:00,50.0,44.7,29.93,WSW,246,5.0,20.0,82,0.00,OVC,,1.18,WeatherDisplay:10.37,2013-04-19 18:30:00,
2013-04-19 14:40:00,50.3,45.0,29.92,SW,218,5.0,12.0,82,0.00,OVC,,1.18,WeatherDisplay:10.37,2013-04-19 18:40:00,
2013-04-19 14:50:00,50.3,44.3,29.90,SW,232,7.0,13.0,80,0.00,BKN,,1.18,WeatherDisplay:10.37,2013-04-19 18:50:00,
2013-04-19 15:00:00,51.1,45.5,29.90,SSW,200,3.0,12.0,81,0.00,BKN,,1.18,WeatherDisplay:10.37,2013-04-19 19:00:00,
2013-04-19 15:10:00,52.1,45.8,29.91,ESE,121,7.0,12.0,79,0.00,SCT,,1.18,WeatherDisplay:10.37,2013-04-19 19:10:00,
2013-04-19 15:20:00,52.1,45.4,29.92,ESE,121,1.0,9.0,78,0.00,SCT,,1.18,WeatherDisplay:10.37,2013-04-19 19:20:00,
2013-04-19 15:30:00,52.4,44.7,29.91,SE,139,6.0,15.0,75,0.00,SCT,,1.18,WeatherDisplay:10.37,2013-04-19 19:30:00,
2013-04-19 15:40:00,53.2,44.0,29.92,South,182,3.0,14.0,71,0.00,SCT,,1.18,WeatherDisplay:10.37,2013-04-19 19:40:00,
2013-04-19 15:50:00,52.7,42.9,29.92,SW,214,9.0,20.0,69,0.00,BKN,,1.18,WeatherDisplay:10.37,2013-04-19 19:50:00,
2013-04-19 16:00:00,52.5,42.6,29.92,SW,214,7.0,20.0,69,0.00,BKN,,1.18,WeatherDisplay:10.37,2013-04-19 20:00:00,
2013-04-19 16:10:00,52.8,42.9,29.94,SE,128,5.0,13.0,69,0.00,BKN,,1.18,WeatherDisplay:10.37,2013-04-19 20:10:00,
2013-04-19 16:20:00,53.0,43.5,29.93,ESE,122,5.0,8.0,70,0.00,BKN,,1.18,WeatherDisplay:10.37,2013-04-19 20:20:00,
2013-04-19 16:30:00,52.6,43.8,29.91,WSW,237,2.0,16.0,72,0.00,BKN,,1.18,WeatherDisplay:10.37,2013-04-19 20:30:00,
2013-04-19 16:40:00,52.7,42.0,29.92,ESE,115,3.0,12.0,67,0.00,BKN,,1.18,WeatherDisplay:10.37,2013-04-19 20:40:00,
2013-04-19 16:50:00,53.2,44.1,29.92,NE,55,0.0,4.0,71,0.00,BKN,,1.18,WeatherDisplay:10.37,2013-04-19 20:50:00,
2013-04-19 17:00:00,53.6,40.5,29.92,WSW,245,5.0,16.0,61,0.00,BKN,,1.18,WeatherDisplay:10.37,2013-04-19 21:00:00,
2013-04-19 17:10:00,53.8,41.1,29.91,SSW,203,3.0,9.0,62,0.00,BKN,,1.18,WeatherDisplay:10.37,2013-04-19 21:10:00,
2013-04-19 17:20:00,53.9,41.6,29.92,SW,216,3.0,12.0,63,0.00,BKN,,1.18,WeatherDisplay:10.37,2013-04-19 21:20:00,
2013-04-19 17:30:00,53.6,42.9,29.91,ENE,60,3.0,7.0,67,0.00,BKN,,1.18,WeatherDisplay:10.37,2013-04-19 21:30:00,
2013-04-19 17:40:00,53.7,42.6,29.91,ESE,120,1.0,6.0,66,0.00,SCT,,1.18,WeatherDisplay:10.37,2013-04-19 21:40:00,
2013-04-19 17:50:00,54.1,42.6,29.91,South,180,2.0,5.0,65,0.00,SCT,,1.18,WeatherDisplay:10.37,2013-04-19 21:50:00,
2013-04-19 18:00:00,53.7,41.8,29.92,SSE,168,6.0,10.0,64,0.00,SCT,,1.18,WeatherDisplay:10.37,2013-04-19 22:00:00,
2013-04-19 18:10:00,53.9,42.4,29.92,SE,142,2.0,6.0,65,0.00,SCT,,1.18,WeatherDisplay:10.37,2013-04-19 22:10:00,
2013-04-19 18:20:00,54.5,42.6,29.92,ESE,118,3.0,10.0,64,0.00,SCT,,1.18,WeatherDisplay:10.37,2013-04-19 22:20:00,
2013-04-19 18:30:00,54.8,42.9,29.93,SE,127,1.0,6.0,64,0.00,SCT,,1.18,WeatherDisplay:10.37,2013-04-19 22:30:00,
2013-04-19 18:40:00,54.9,42.2,29.93,SSE,150,2.0,8.0,62,0.00,SCT,,1.18,WeatherDisplay:10.37,2013-04-19 22:40:00,
2013-04-19 18:50:00,55.0,41.8,29.94,SE,130,1.0,8.0,61,0.00,BKN,,1.18,WeatherDisplay:10.37,2013-04-19 22:50:00,
2013-04-19 19:00:00,54.4,41.2,29.94,NE,50,0.0,10.0,61,0.00,BKN,,1.18,WeatherDisplay:10.37,2013-04-19 23:00:00,
2013-04-19 19:10:00,54.7,41.5,29.95,SSE,153,1.0,5.0,61,0.00,SCT,,1.18,WeatherDisplay:10.37,2013-04-19 23:10:00,
2013-04-19 19:20:00,53.9,40.3,29.94,SE,130,1.0,10.0,60,0.00,SCT,,1.18,WeatherDisplay:10.37,2013-04-19 23:20:00,
2013-04-19 19:30:00,53.1,40.5,29.95,ESE,123,0.0,7.0,62,0.00,SCT,,1.18,WeatherDisplay:10.37,2013-04-19 23:30:00,
2013-04-19 19:40:00,52.5,40.3,29.96,East,97,0.0,7.0,63,0.00,BKN,,1.18,WeatherDisplay:10.37,2013-04-19 23:40:00,
2013-04-19 19:50:00,52.1,41.1,29.96,SE,124,0.0,4.0,66,0.00,SCT,,1.18,WeatherDisplay:10.37,2013-04-19 23:50:00,
2013-04-19 20:00:00,51.5,41.3,29.97,SE,136,0.0,4.0,68,0.00,SCT,,1.18,WeatherDisplay:10.37,2013-04-20 00:00:00,
2013-04-19 20:10:00,50.9,40.4,29.97,ESE,110,0.0,4.0,67,0.00,CLR,,1.18,WeatherDisplay:10.37,2013-04-20 00:10:00,
2013-04-19 20:20:00,50.6,40.4,29.97,SE,145,0.0,5.0,68,0.00,CLR,,1.18,WeatherDisplay:10.37,2013-04-20 00:20:00,
2013-04-19 20:30:00,50.1,40.7,29.98,SE,145,0.0,2.0,70,0.00,CLR,,1.18,WeatherDisplay:10.37,2013-04-20 00:30:00,
2013-04-19 20:40:00,49.6,39.5,29.99,SE,145,1.0,2.0,68,0.00,SCT,,1.18,WeatherDisplay:10.37,2013-04-20 00:40:00,
2013-04-19 20:50:00,49.0,42.4,30.00,SE,146,0.0,2.0,78,0.00,OVC,,1.18,WeatherDisplay:10.37,2013-04-20 00:50:00,
2013-04-19 21:00:00,47.3,41.7,30.00,SSW,207,2.0,3.0,81,0.00,OVC,,1.18,WeatherDisplay:10.37,2013-04-20 01:00:00,
2013-04-19 21:10:00,46.2,41.3,30.01,SSW,207,0.0,3.0,83,0.00,OVC,,1.18,WeatherDisplay:10.37,2013-04-20 01:10:00,
2013-04-19 21:20:00,45.5,40.9,30.01,SW,224,0.0,4.0,84,0.00,OVC,,1.18,WeatherDisplay:10.37,2013-04-20 01:20:00,
2013-04-19 21:30:00,45.0,40.5,30.02,SW,231,0.0,2.0,84,0.00,OVC,,1.18,WeatherDisplay:10.37,2013-04-20 01:30:00,
2013-04-19 21:40:00,44.5,40.3,30.03,SW,231,0.0,2.0,85,0.00,BKN,,1.18,WeatherDisplay:10.37,2013-04-20 01:40:00,
2013-04-19 21:50:00,44.3,40.4,30.04,SW,231,1.0,3.0,86,0.00,BKN,,1.18,WeatherDisplay:10.37,2013-04-20 01:50:00,
2013-04-19 22:00:00,44.1,40.5,30.04,SW,231,2.0,4.0,87,0.00,BKN,,1.18,WeatherDisplay:10.37,2013-04-20 02:00:00,
2013-04-19 22:10:00,44.0,40.4,30.05,SW,231,0.0,3.0,87,0.00,OVC,,1.18,WeatherDisplay:10.37,2013-04-20 02:10:00,
2013-04-19 22:20:00,44.0,40.4,30.06,SW,231,0.0,3.0,87,0.00,OVC,,1.18,WeatherDisplay:10.37,2013-04-20 02:20:00,
2013-04-19 22:30:00,43.9,40.6,30.07,SW,231,0.0,3.0,88,0.00,OVC,,1.18,WeatherDisplay:10.37,2013-04-20 02:30:00,
2013-04-19 22:40:00,43.7,40.1,30.07,SW,231,0.0,3.0,87,0.00,OVC,,1.18,WeatherDisplay:10.37,2013-04-20 02:40:00,
2013-04-19 22:50:00,43.6,39.1,30.08,WSW,243,1.0,3.0,84,0.00,BKN,,1.18,WeatherDisplay:10.37,2013-04-20 02:50:00,
2013-04-19 23:00:00,43.8,39.0,30.08,WNW,288,0.0,4.0,83,0.00,BKN,,1.18,WeatherDisplay:10.37,2013-04-20 03:00:00,
2013-04-19 23:10:00,44.0,38.9,30.08,NNE,29,0.0,4.0,82,0.00,OVC,,1.18,WeatherDisplay:10.37,2013-04-20 03:10:00,
2013-04-19 23:20:00,43.6,39.4,30.09,NNW,339,0.0,2.0,85,0.00,OVC,,1.18,WeatherDisplay:10.37,2013-04-20 03:20:00,
2013-04-19 23:30:00,44.0,38.2,30.09,NE,38,1.0,5.0,80,0.00,OVC,,1.18,WeatherDisplay:10.37,2013-04-20 03:30:00,
2013-04-19 23:40:00,44.1,38.7,30.09,NNE,33,0.0,5.0,81,0.00,BKN,,1.18,WeatherDisplay:10.37,2013-04-20 03:40:00,
2013-04-19 23:50:00,43.8,38.3,30.09,WNW,302,2.0,4.0,81,0.00,SCT,,1.18,WeatherDisplay:10.37,2013-04-20 03:50:00,